createdAt,value
2019-06-10T00:01:21.168Z,3.20
2019-06-10T00:03:51.917Z,3.10
2019-06-10T00:06:22.974Z,3.43
2019-06-10T00:08:56.037Z,2.80
2019-06-10T00:11:26.675Z,3.50
2019-06-10T00:13:58.547Z,3.00
2019-06-10T00:16:30.854Z,3.20
2019-06-10T00:19:23.946Z,3.17
2019-06-10T00:21:54.383Z,3.50
2019-06-10T00:24:26.356Z,3.20
2019-06-10T00:26:57.777Z,3.50
2019-06-10T00:29:28.368Z,3.33
2019-06-10T00:32:03.248Z,3.00
2019-06-10T00:34:35.015Z,3.33
2019-06-10T00:37:06.304Z,3.13
2019-06-10T00:39:36.709Z,2.90
2019-06-10T00:42:09.605Z,3.00
2019-06-10T00:44:41.508Z,3.17
2019-06-10T00:47:14.705Z,3.10
2019-06-10T00:49:43.791Z,3.20
2019-06-10T00:52:14.253Z,3.13
2019-06-10T00:54:44.663Z,3.10
2019-06-10T00:57:18.062Z,2.90
2019-06-10T00:59:50.815Z,2.80
2019-06-10T01:02:22.093Z,3.10
2019-06-10T01:04:53.627Z,3.30
2019-06-10T01:07:27.095Z,3.13
2019-06-10T01:09:57.620Z,2.90
2019-06-10T01:12:28.312Z,2.70
2019-06-10T01:15:00.762Z,3.10
2019-06-10T01:17:31.245Z,2.90
2019-06-10T01:20:01.784Z,2.83
2019-06-10T01:22:32.269Z,3.33
2019-06-10T01:25:07.233Z,3.13
2019-06-10T01:27:37.821Z,2.67
2019-06-10T01:30:12.452Z,2.90
2019-06-10T01:32:41.627Z,2.87
2019-06-10T01:35:14.197Z,2.93
2019-06-10T01:37:44.372Z,2.80
2019-06-10T01:40:17.998Z,3.20
2019-06-10T01:42:47.323Z,2.90
2019-06-10T01:45:17.793Z,3.40
2019-06-10T01:47:48.270Z,3.03
2019-06-10T01:50:19.644Z,2.67
2019-06-10T01:52:51.552Z,3.20
2019-06-10T01:55:22.108Z,3.07
2019-06-10T01:57:54.034Z,3.67
2019-06-10T02:00:31.919Z,3.30
2019-06-10T02:03:03.693Z,3.30
2019-06-10T02:05:34.817Z,3.50
2019-06-10T02:08:06.100Z,3.70
2019-06-10T02:10:41.518Z,3.17
2019-06-10T02:13:32.658Z,3.30
2019-06-10T02:16:02.366Z,3.27
2019-06-10T02:18:33.003Z,3.70
2019-06-10T02:21:03.431Z,3.27
2019-06-10T02:23:44.308Z,3.43
2019-06-10T02:26:20.009Z,3.07
2019-06-10T02:29:22.232Z,3.80
2019-06-10T02:32:14.514Z,3.37
2019-06-10T02:35:02.010Z,3.77
2019-06-10T02:37:54.909Z,3.37
2019-06-10T02:40:31.786Z,3.50
2019-06-10T02:43:05.886Z,3.60
2019-06-10T02:45:37.670Z,3.30
2019-06-10T02:48:08.547Z,4.00
2019-06-10T02:50:56.943Z,3.97
2019-06-10T02:53:31.198Z,4.00
2019-06-10T02:55:59.591Z,4.07
2019-06-10T02:58:37.254Z,3.53
2019-06-10T03:01:04.307Z,4.17
2019-06-10T03:03:42.570Z,3.97
2019-06-10T03:06:08.884Z,3.60
2019-06-10T03:08:38.623Z,4.27
2019-06-10T03:11:09.052Z,3.87
2019-06-10T03:13:39.502Z,3.80
2019-06-10T03:16:25.846Z,4.30
2019-06-10T03:18:56.364Z,3.67
2019-06-10T03:21:28.526Z,4.40
2019-06-10T03:24:02.487Z,3.80
2019-06-10T03:26:32.469Z,4.00
2019-06-10T03:29:02.979Z,3.87
2019-06-10T03:31:41.132Z,3.77
2019-06-10T03:34:05.655Z,4.03
2019-06-10T03:36:37.511Z,3.73
2019-06-10T03:39:08.956Z,3.53
2019-06-10T03:41:39.450Z,3.57
2019-06-10T03:44:09.879Z,3.43
2019-06-10T03:46:42.891Z,3.83
2019-06-10T03:49:12.879Z,3.43
2019-06-10T03:51:44.884Z,3.40
2019-06-10T03:54:15.316Z,3.50
2019-06-10T03:56:52.106Z,3.60
2019-06-10T03:59:24.645Z,3.00
2019-06-10T04:01:57.272Z,3.40
2019-06-10T04:04:29.359Z,3.30
2019-06-10T04:07:03.836Z,3.23
2019-06-10T04:09:34.511Z,3.53
2019-06-10T04:12:06.425Z,3.40
2019-06-10T04:14:37.120Z,3.50
2019-06-10T04:17:08.058Z,4.23
2019-06-10T04:19:38.439Z,3.23
2019-06-10T04:22:08.919Z,3.40
2019-06-10T04:24:39.579Z,3.70
2019-06-10T04:27:12.148Z,3.77
2019-06-10T04:29:43.227Z,3.77
2019-06-10T04:32:14.124Z,3.47
2019-06-10T04:34:44.571Z,3.90
2019-06-10T04:37:15.188Z,3.53
2019-06-10T04:39:45.646Z,3.60
2019-06-10T04:42:16.093Z,4.03
2019-06-10T04:44:46.959Z,3.70
2019-06-10T04:47:18.533Z,3.33
2019-06-10T04:49:52.235Z,3.67
2019-06-10T04:52:23.612Z,3.77
2019-06-10T04:54:56.312Z,3.50
2019-06-10T04:57:28.047Z,3.53
2019-06-10T04:59:58.884Z,3.97
2019-06-10T05:02:30.101Z,3.93
2019-06-10T05:05:02.934Z,4.10
2019-06-10T05:07:36.832Z,4.83
2019-06-10T05:10:08.625Z,3.97
2019-06-10T05:12:44.964Z,3.70
2019-06-10T05:15:15.357Z,3.53
2019-06-10T05:17:45.996Z,3.70
2019-06-10T05:20:17.435Z,3.53
2019-06-10T05:22:52.805Z,3.30
2019-06-10T05:25:25.337Z,3.80
2019-06-10T05:27:55.431Z,3.53
2019-06-10T05:30:29.573Z,3.97
2019-06-10T05:33:02.960Z,3.53
2019-06-10T05:35:34.030Z,3.87
2019-06-10T05:38:04.558Z,3.80
2019-06-10T05:40:38.336Z,3.67
2019-06-10T05:43:08.815Z,3.40
2019-06-10T05:45:39.210Z,4.43
2019-06-10T05:48:09.662Z,4.10
2019-06-10T05:50:40.045Z,3.83
2019-06-10T05:53:13.137Z,4.00
2019-06-10T05:55:43.218Z,3.87
2019-06-10T05:58:13.869Z,3.80
2019-06-10T06:00:45.665Z,4.00
2019-06-10T06:03:16.119Z,4.03
2019-06-10T06:05:46.562Z,3.70
2019-06-10T06:08:16.953Z,3.73
2019-06-10T06:10:47.404Z,3.77
2019-06-10T06:13:23.095Z,4.47
2019-06-10T06:15:56.050Z,4.17
2019-06-10T06:18:26.436Z,3.37
2019-06-10T06:20:56.914Z,4.17
2019-06-10T06:23:28.596Z,4.23
2019-06-10T06:26:03.628Z,4.23
2019-06-10T06:28:35.981Z,4.27
2019-06-10T06:31:05.996Z,4.27
2019-06-10T06:33:38.570Z,3.73
2019-06-10T06:36:08.620Z,3.97
2019-06-10T06:38:43.826Z,4.23
2019-06-10T06:41:14.442Z,4.13
2019-06-10T06:43:45.443Z,4.50
2019-06-10T06:46:16.130Z,4.03
2019-06-10T06:48:46.543Z,4.00
2019-06-10T06:51:16.987Z,3.97
2019-06-10T06:53:51.938Z,3.50
2019-06-10T06:56:20.036Z,4.20
2019-06-10T06:58:52.454Z,4.70
2019-06-10T07:01:25.815Z,4.40
2019-06-10T07:04:02.670Z,4.53
2019-06-10T07:06:32.908Z,3.90
2019-06-10T07:09:08.407Z,3.70
2019-06-10T07:11:40.238Z,4.13
2019-06-10T07:14:13.356Z,4.00
2019-06-10T07:16:46.063Z,4.67
2019-06-10T07:19:15.887Z,4.40
2019-06-10T07:22:08.859Z,3.73
2019-06-10T07:24:40.662Z,4.07
2019-06-10T07:27:15.367Z,4.10
2019-06-10T07:29:52.979Z,4.40
2019-06-10T07:32:52.816Z,4.07
2019-06-10T07:35:25.250Z,4.43
2019-06-10T07:37:57.195Z,4.50
2019-06-10T07:40:32.977Z,5.03
2019-06-10T07:43:07.548Z,4.40
2019-06-10T07:46:03.354Z,4.33
2019-06-10T07:48:48.644Z,3.90
2019-06-10T07:51:28.566Z,4.03
2019-06-10T07:54:03.916Z,4.17
2019-06-10T07:56:43.076Z,4.80
2019-06-10T07:59:13.169Z,4.47
2019-06-10T08:01:51.490Z,4.90
2019-06-10T08:04:38.126Z,4.70
2019-06-10T08:07:13.730Z,4.77
2019-06-10T08:09:53.291Z,4.60
2019-06-10T08:12:33.632Z,4.87
2019-06-10T08:15:12.486Z,4.77
2019-06-10T08:17:46.141Z,4.60
2019-06-10T08:20:48.857Z,5.00
2019-06-10T08:23:19.417Z,4.40
2019-06-10T08:25:57.357Z,5.13
2019-06-10T08:28:27.325Z,4.50
2019-06-10T08:31:03.380Z,4.40
2019-06-10T08:33:42.548Z,4.40
2019-06-10T08:36:13.656Z,4.93
2019-06-10T08:38:48.803Z,4.63
2019-06-10T08:41:28.829Z,4.40
2019-06-10T08:44:03.670Z,4.73
2019-06-10T08:46:44.964Z,5.07
2019-06-10T08:49:23.929Z,4.67
2019-06-10T08:51:50.078Z,4.60
2019-06-10T08:54:45.259Z,4.10
2019-06-10T08:57:17.731Z,4.77
2019-06-10T08:59:59.717Z,4.40
2019-06-10T09:02:53.916Z,4.47
2019-06-10T09:05:40.453Z,4.40
2019-06-10T09:08:16.888Z,5.33
2019-06-10T09:11:02.370Z,4.33
2019-06-10T09:13:43.780Z,4.33
2019-06-10T09:16:16.628Z,4.23
2019-06-10T09:18:55.014Z,4.37
2019-06-10T09:21:33.070Z,4.20
2019-06-10T09:24:40.869Z,3.90
2019-06-10T09:27:16.361Z,4.40
2019-06-10T09:30:04.921Z,4.20
2019-06-10T09:32:42.676Z,4.20
2019-06-10T09:35:18.309Z,4.13
2019-06-10T09:37:55.750Z,4.20
2019-06-10T09:40:59.930Z,4.70
2019-06-10T09:43:29.149Z,4.13
2019-06-10T09:46:03.764Z,4.00
2019-06-10T09:48:40.958Z,4.53
2019-06-10T09:51:45.858Z,4.50
2019-06-10T09:54:15.342Z,4.67
2019-06-10T09:56:50.020Z,4.20
2019-06-10T09:59:39.094Z,4.37
2019-06-10T10:02:18.578Z,4.50
2019-06-10T10:05:02.948Z,4.13
2019-06-10T10:07:46.318Z,4.47
2019-06-10T10:10:18.058Z,4.30
2019-06-10T10:13:07.970Z,4.00
2019-06-10T10:15:53.848Z,4.53
2019-06-10T10:18:32.920Z,4.57
2019-06-10T10:21:07.757Z,4.67
2019-06-10T10:23:59.829Z,4.33
2019-06-10T10:26:27.156Z,4.33
2019-06-10T10:29:12.861Z,4.30
2019-06-10T10:31:48.984Z,4.70
2019-06-10T10:38:34.557Z,3.90
2019-06-10T10:41:13.269Z,3.80
2019-06-10T10:50:58.155Z,4.00
2019-06-10T10:53:50.563Z,4.20
2019-06-10T10:56:22.311Z,3.80
2019-06-10T10:58:57.703Z,4.47
2019-06-10T11:01:28.943Z,4.47
2019-06-10T11:04:24.043Z,4.10
2019-06-10T11:07:16.478Z,4.47
2019-06-10T11:09:59.627Z,4.30
2019-06-10T11:23:34.562Z,4.10
2019-06-10T11:26:19.462Z,4.30
2019-06-10T11:29:10.794Z,4.27
2019-06-10T11:31:48.484Z,4.00
2019-06-10T11:35:21.739Z,4.30
2019-06-10T11:38:06.951Z,4.53
2019-06-10T11:40:47.153Z,4.20
2019-06-10T11:43:34.547Z,4.23
2019-06-10T11:46:13.120Z,4.33
2019-06-10T11:48:55.604Z,4.40
2019-06-10T11:51:47.191Z,4.60
2019-06-10T11:54:24.136Z,4.03
2019-06-10T11:57:14.528Z,4.30
2019-06-10T11:59:53.247Z,4.17
2019-06-10T12:02:29.077Z,4.70
2019-06-10T12:08:23.631Z,4.80
2019-06-10T12:11:12.841Z,4.50
2019-06-10T12:13:45.117Z,4.27
2019-06-10T12:19:28.993Z,4.40
2019-06-10T12:26:11.214Z,4.07
2019-06-10T12:28:45.151Z,4.17
2019-06-10T12:31:24.115Z,4.53
2019-06-10T12:37:56.599Z,4.03
2019-06-10T12:40:29.560Z,4.13
2019-06-10T12:43:06.785Z,4.20
2019-06-10T12:45:47.530Z,4.20
2019-06-10T12:48:34.597Z,4.47
2019-06-10T12:51:13.539Z,4.17
2019-06-10T13:04:22.534Z,3.70
2019-06-10T13:07:13.250Z,3.70
2019-06-10T13:10:07.968Z,4.40
2019-06-10T13:12:53.002Z,4.20
2019-06-10T13:31:14.369Z,4.30
2019-06-10T13:36:54.103Z,4.40
2019-06-10T13:39:35.444Z,3.97
2019-06-10T13:42:19.206Z,3.87
2019-06-10T13:44:53.435Z,4.37
2019-06-10T13:47:29.440Z,3.80
2019-06-10T13:50:44.841Z,4.20
2019-06-10T13:53:19.231Z,4.10
2019-06-10T13:56:24.658Z,4.07
2019-06-10T14:02:52.589Z,3.97
2019-06-10T14:05:29.687Z,4.63
2019-06-10T14:08:15.031Z,4.47
2019-06-10T14:13:54.355Z,4.50
2019-06-10T14:20:19.090Z,3.80
2019-06-10T14:23:53.809Z,4.20
2019-06-10T14:26:37.867Z,3.53
2019-06-10T14:29:19.071Z,3.77
2019-06-10T14:35:42.792Z,3.80
2019-06-10T14:39:22.237Z,4.40
2019-06-10T14:42:05.662Z,3.87
2019-06-10T14:52:42.713Z,4.37
2019-06-10T14:55:19.744Z,4.87
2019-06-10T14:57:57.652Z,4.20
2019-06-10T15:00:58.773Z,4.60
2019-06-10T15:04:02.958Z,4.20
2019-06-10T15:06:46.842Z,4.10
2019-06-10T15:09:24.589Z,4.30
2019-06-10T15:12:28.083Z,4.17
2019-06-10T15:15:34.189Z,4.10
2019-06-10T15:26:17.354Z,3.87
2019-06-10T15:29:27.610Z,4.00
2019-06-10T15:32:19.156Z,4.57
2019-06-10T15:35:23.983Z,4.77
2019-06-10T15:38:15.689Z,4.37
2019-06-10T15:40:49.409Z,4.63
2019-06-10T15:43:42.413Z,4.20
2019-06-10T15:53:25.308Z,4.50
2019-06-10T15:56:31.782Z,4.37
2019-06-10T15:59:14.937Z,4.50
2019-06-10T16:05:36.693Z,4.37
2019-06-10T16:08:45.075Z,4.40
2019-06-10T16:11:35.289Z,4.63
2019-06-10T16:21:52.817Z,4.57
2019-06-10T16:35:32.136Z,4.90
2019-06-10T16:41:32.868Z,5.30
2019-06-10T16:44:13.579Z,5.00
2019-06-10T16:46:52.645Z,5.30
2019-06-10T16:50:06.492Z,4.97
2019-06-10T16:52:43.095Z,5.50
2019-06-10T16:56:26.471Z,4.83
2019-06-10T16:59:02.828Z,5.10
2019-06-10T17:01:38.914Z,5.47
2019-06-10T17:04:28.083Z,5.47
2019-06-10T17:07:09.606Z,6.00
2019-06-10T17:13:42.250Z,7.73
2019-06-10T17:17:12.702Z,7.77
2019-06-10T17:20:03.756Z,7.77
2019-06-10T17:22:44.237Z,7.80
2019-06-10T17:28:47.820Z,7.00
2019-06-10T17:31:28.727Z,6.87
2019-06-10T17:45:27.166Z,7.33
2019-06-10T17:47:55.829Z,7.57
2019-06-10T17:50:27.979Z,7.97
2019-06-10T17:52:58.819Z,7.50
2019-06-10T17:55:33.673Z,8.07
2019-06-10T17:58:03.524Z,7.70
2019-06-10T18:00:36.240Z,7.47
2019-06-10T18:03:06.828Z,7.30
2019-06-10T18:05:37.561Z,8.13
2019-06-10T18:08:08.817Z,7.03
2019-06-10T18:10:43.661Z,5.67
2019-06-10T18:13:16.812Z,5.60
2019-06-10T18:15:47.781Z,5.10
2019-06-10T18:18:18.571Z,4.97
2019-06-10T18:20:53.296Z,5.00
2019-06-10T18:23:23.146Z,4.80
2019-06-10T18:25:54.804Z,4.53
2019-06-10T18:28:26.883Z,4.50
2019-06-10T18:30:58.297Z,5.50
2019-06-10T18:33:29.642Z,4.70
2019-06-10T18:36:02.484Z,4.37
2019-06-10T18:38:36.942Z,4.47
2019-06-10T18:41:07.386Z,4.10
2019-06-10T18:43:38.166Z,4.00
2019-06-10T18:46:08.929Z,3.87
2019-06-10T18:48:40.083Z,4.13
2019-06-10T18:51:12.475Z,3.77
2019-06-10T18:53:43.287Z,4.10
2019-06-10T18:56:14.051Z,3.30
2019-06-10T18:58:47.319Z,3.40
2019-06-10T19:01:18.726Z,3.40
2019-06-10T19:03:49.540Z,3.33
2019-06-10T19:06:22.804Z,3.90
2019-06-10T19:08:53.504Z,3.83
2019-06-10T19:11:24.636Z,3.57
2019-06-10T19:13:55.395Z,3.87
2019-06-10T19:16:26.160Z,3.70
2019-06-10T19:18:58.255Z,3.57
2019-06-10T19:21:30.057Z,3.60
2019-06-10T19:24:03.245Z,3.30
2019-06-10T19:26:36.996Z,4.17
2019-06-10T19:29:06.678Z,3.90
2019-06-10T19:31:46.159Z,3.60
2019-06-10T19:34:17.322Z,3.47
2019-06-10T19:36:48.058Z,3.67
2019-06-10T19:39:18.773Z,4.30
2019-06-10T19:41:52.862Z,3.53
2019-06-10T19:44:24.251Z,3.83
2019-06-10T19:46:55.039Z,3.53
2019-06-10T19:49:25.787Z,3.80
2019-06-10T19:51:57.332Z,3.87
2019-06-10T19:54:28.044Z,3.90
2019-06-10T19:56:58.814Z,3.37
2019-06-10T19:59:29.528Z,3.87
2019-06-10T20:02:03.232Z,3.63
2019-06-10T20:04:34.651Z,3.43
2019-06-10T20:07:05.545Z,3.77
2019-06-10T20:09:36.314Z,3.87
2019-06-10T20:12:07.095Z,3.70
2019-06-10T20:14:40.530Z,4.00
2019-06-10T20:17:13.424Z,3.10
2019-06-10T20:19:45.897Z,4.50
2019-06-10T20:22:17.828Z,4.07
2019-06-10T20:24:48.910Z,3.57
2019-06-10T20:27:22.704Z,3.87
2019-06-10T20:30:05.860Z,3.83
2019-06-10T20:32:25.403Z,4.37
2019-06-10T20:34:56.162Z,4.00
2019-06-10T20:37:26.776Z,4.13
2019-06-10T20:40:03.699Z,3.60
2019-06-10T20:42:34.385Z,3.80
2019-06-10T20:45:05.175Z,3.70
2019-06-10T20:47:35.664Z,3.80
2019-06-10T20:50:06.186Z,3.77
2019-06-10T20:52:37.906Z,3.77
2019-06-10T20:55:12.566Z,3.80
2019-06-10T20:57:55.890Z,4.10
2019-06-10T21:00:22.570Z,4.10
2019-06-10T21:02:50.359Z,3.90
2019-06-10T21:05:22.338Z,3.37
2019-06-10T21:07:54.397Z,3.93
2019-06-10T21:10:34.974Z,3.63
2019-06-10T21:13:06.173Z,4.10
2019-06-10T21:15:36.719Z,4.10
2019-06-10T21:18:07.241Z,3.70
2019-06-10T21:20:37.993Z,4.10
2019-06-10T21:23:08.579Z,3.77
2019-06-10T21:25:40.600Z,4.30
2019-06-10T21:28:13.081Z,3.90
2019-06-10T21:30:49.686Z,4.30
2019-06-10T21:33:15.674Z,4.53
2019-06-10T21:35:47.376Z,3.70
2019-06-10T21:38:18.244Z,3.77
2019-06-10T21:40:49.761Z,4.07
2019-06-10T21:43:22.358Z,3.90
2019-06-10T21:45:57.480Z,4.03
2019-06-10T21:48:25.201Z,4.00
2019-06-10T21:50:56.014Z,3.80
2019-06-10T21:53:26.728Z,4.00
2019-06-10T21:55:57.217Z,4.07
2019-06-10T21:58:29.550Z,4.37
2019-06-10T22:01:09.631Z,4.37
2019-06-10T22:03:32.491Z,4.90
2019-06-10T22:06:02.915Z,4.07
2019-06-10T22:08:33.792Z,4.00
2019-06-10T22:11:04.329Z,4.10
2019-06-10T22:13:34.721Z,4.50
2019-06-10T22:16:05.622Z,3.93
2019-06-10T22:18:36.169Z,3.97
2019-06-10T22:21:06.566Z,4.30
2019-06-10T22:23:37.004Z,4.70
2019-06-10T22:26:07.416Z,4.67
2019-06-10T22:28:38.327Z,4.47
2019-06-10T22:31:19.090Z,4.97
2019-06-10T22:33:43.030Z,4.50
2019-06-10T22:36:13.101Z,4.70
2019-06-10T22:38:43.478Z,4.80
2019-06-10T22:41:14.212Z,4.57
2019-06-10T22:43:44.609Z,5.47
2019-06-10T22:46:15.065Z,5.40
2019-06-10T22:48:46.683Z,5.30
2019-06-10T22:51:17.342Z,5.60
2019-06-10T22:53:48.278Z,5.57
2019-06-10T22:56:19.221Z,5.80
2019-06-10T22:58:49.854Z,5.50
2019-06-10T23:01:31.660Z,5.30
2019-06-10T23:03:56.259Z,5.53
2019-06-10T23:06:26.829Z,5.20
2019-06-10T23:08:58.116Z,5.10
2019-06-10T23:11:48.882Z,4.87
2019-06-10T23:14:19.328Z,5.03
2019-06-10T23:16:51.442Z,4.53
2019-06-10T23:19:23.401Z,4.20
2019-06-10T23:21:55.686Z,5.10
2019-06-10T23:24:26.654Z,4.87
2019-06-10T23:26:57.997Z,5.10
2019-06-10T23:29:28.608Z,5.07
2019-06-10T23:32:05.938Z,5.30
2019-06-10T23:34:33.053Z,5.47
2019-06-10T23:37:03.482Z,4.37
2019-06-10T23:39:35.455Z,5.23
2019-06-10T23:42:05.899Z,4.13
2019-06-10T23:44:36.350Z,4.83
2019-06-10T23:47:06.798Z,4.93
2019-06-10T23:49:37.259Z,5.07
2019-06-10T23:52:08.097Z,5.03
2019-06-10T23:54:38.534Z,4.93
2019-06-10T23:57:08.965Z,4.30
2019-06-10T23:59:39.414Z,4.57
